Terminal Aerodrome Forecast
Issued by NWS

Home | Current Version | Previous Version | Graphics & Text | Print | Product List | Glossary On
Versions: 1 2 3 4 5 6 7 8 9 10 11 12 13 14 15 16 17 18
947
FTUS43 KBIS 161452 AAA
TAFJMS
TAF AMD
KJMS 161452Z 1615/1712 VRB02KT 1SM BR OVC002
      TEMPO 1615/1617 4SM BR OVC005
     FM161700 35007KT P6SM SCT005 OVC010
     FM161900 35009KT P6SM BKN025
     FM162100 36009KT P6SM SCT045
     FM170200 36005KT P6SM SCT200=

USA.gov is the U.S. government's official web portal to all federal, state and local government web resources and services.